Time;durP1;ratioP1;P1;durP2;ratioP2;P2;SDS_P1;SDS_P2;PMS_P1;PMS_P2;Temp;Humidity;BMP_temperature;BMP_pressure;BME280_temperature;BME280_humidity;BME280_pressure;Samples;Min_cycle;Max_cycle;Signal;HPM_P1;HPM_P2
2022/09/06 16:57:07;;;;;;;;;;;13.10;66.70;;;;;;5133235;27;19917;-95
2022/09/06 16:59:33;;;;;;;;;;;12.90;67.80;;;;;;5105712;28;20338;-96
2022/09/06 17:01:58;;;;;;;;;;;12.90;68.70;;;;;;5104092;28;19967;-95
2022/09/06 17:04:24;;;;;;;;;;;13.00;69.40;;;;;;5099742;28;19909;-95
2022/09/06 17:06:49;;;;;;;;;;;13.10;69.80;;;;;;5098511;28;19910;-94
2022/09/06 17:09:18;;;;;;;;;;;13.10;70.10;;;;;;5097415;28;19959;-94
2022/09/06 17:11:43;;;;;;;;;;;13.20;70.40;;;;;;5130378;27;19914;-94
2022/09/06 17:14:09;;;;;;;;;;;13.30;70.70;;;;;;5096722;28;20004;-94
2022/09/06 17:19:19;;;;;;;;;;;13.40;71.00;;;;;;5029232;28;19954;-94
2022/09/06 17:21:44;;;;;;;;;;;13.50;71.10;;;;;;5097497;28;19910;-94
2022/09/06 17:24:10;;;;;;;;;;;13.50;71.20;;;;;;5097831;28;19977;-95
2022/09/06 17:26:36;;;;;;;;;;;13.60;71.20;;;;;;5097517;28;19917;-95
2022/09/06 17:29:02;;;;;;;;;;;13.60;71.40;;;;;;5096921;28;19929;-95
2022/09/06 17:31:28;;;;;;;;;;;13.60;72.00;;;;;;5097440;28;19921;-94
2022/09/06 17:33:53;;;;;;;;;;;13.60;71.40;;;;;;5082495;28;19921;-94
2022/09/06 17:36:23;;;;;;;;;;;13.60;71.40;;;;;;5095058;28;19953;-94
2022/09/06 17:38:49;;;;;;;;;;;13.60;71.40;;;;;;5140098;27;19916;-94
2022/09/06 17:41:23;;;;;;;;;;;13.60;71.50;;;;;;5095544;28;19921;-92
2022/09/06 17:43:49;;;;;;;;;;;13.50;71.50;;;;;;5124633;27;19924;-92
2022/09/06 17:46:14;;;;;;;;;;;13.60;71.60;;;;;;5113671;28;19915;-92
2022/09/06 17:48:40;;;;;;;;;;;13.50;72.20;;;;;;5096430;28;19920;-92
2022/09/06 17:51:06;;;;;;;;;;;13.50;71.60;;;;;;5130825;27;20373;-92
2022/09/06 17:53:32;;;;;;;;;;;13.40;71.70;;;;;;5029824;28;19947;-89
2022/09/06 17:56:01;;;;;;;;;;;13.30;71.70;;;;;;5033907;28;19925;-89
2022/09/06 17:58:27;;;;;;;;;;;13.30;71.80;;;;;;5025531;28;19913;-92
2022/09/06 18:00:53;;;;;;;;;;;13.20;71.90;;;;;;5099021;28;19921;-92
2022/09/06 18:03:18;;;;;;;;;;;13.10;71.90;;;;;;5037425;28;19918;-92
2022/09/06 18:05:44;;;;;;;;;;;13.10;72.10;;;;;;5115470;27;19954;-93
2022/09/06 18:08:10;;;;;;;;;;;13.00;72.10;;;;;;5085319;28;19955;-92
2022/09/06 18:10:36;;;;;;;;;;;12.90;72.30;;;;;;5013839;28;20658;-92
2022/09/06 18:13:03;;;;;;;;;;;12.90;72.30;;;;;;5099839;28;19919;-92
2022/09/06 18:15:29;;;;;;;;;;;12.80;72.50;;;;;;5079441;28;19941;-92
2022/09/06 18:17:54;;;;;;;;;;;12.70;72.60;;;;;;5082789;28;19913;-91
2022/09/06 18:20:21;;;;;;;;;;;12.60;72.80;;;;;;5082542;28;20356;-96
2022/09/06 18:22:47;;;;;;;;;;;12.50;72.80;;;;;;5100190;28;19907;-93
2022/09/06 18:25:12;;;;;;;;;;;12.40;72.90;;;;;;5082710;28;19924;-92
2022/09/06 18:27:38;;;;;;;;;;;12.30;72.90;;;;;;5082165;28;19917;-90
2022/09/06 18:30:03;;;;;;;;;;;12.20;73.10;;;;;;5076750;28;20032;-89
2022/09/06 18:32:29;;;;;;;;;;;12.10;73.20;;;;;;5013127;28;19936;-90
2022/09/06 18:34:55;;;;;;;;;;;12.10;73.60;;;;;;5012496;28;19932;-92
2022/09/06 18:37:20;;;;;;;;;;;12.00;73.70;;;;;;5080355;28;19913;-90
2022/09/06 18:39:46;;;;;;;;;;;11.90;73.70;;;;;;5080823;28;20366;-91
2022/09/06 18:42:11;;;;;;;;;;;11.80;73.70;;;;;;5080039;28;19921;-90
2022/09/06 18:44:37;;;;;;;;;;;11.80;74.00;;;;;;5081676;28;20285;-90
2022/09/06 18:47:07;;;;;;;;;;;11.60;74.60;;;;;;5012869;28;19921;-90
2022/09/06 18:49:33;;;;;;;;;;;11.60;74.10;;;;;;5015004;28;20000;-89
2022/09/06 18:51:59;;;;;;;;;;;11.50;74.30;;;;;;5079754;28;19971;-91
2022/09/06 18:54:25;;;;;;;;;;;11.40;74.40;;;;;;4995904;28;19914;-90
2022/09/06 18:56:51;;;;;;;;;;;11.30;74.50;;;;;;5071782;28;20423;-90
2022/09/06 18:59:16;;;;;;;;;;;11.30;74.60;;;;;;5081288;28;19936;-90
2022/09/06 19:01:42;;;;;;;;;;;11.20;74.60;;;;;;5014194;28;19962;-91
2022/09/06 19:04:08;;;;;;;;;;;11.10;74.80;;;;;;5082249;28;19949;-89
2022/09/06 19:06:34;;;;;;;;;;;11.10;74.80;;;;;;5013180;28;20007;-88
2022/09/06 19:09:00;;;;;;;;;;;11.00;75.00;;;;;;5013292;28;20388;-89
2022/09/06 19:11:26;;;;;;;;;;;10.90;75.10;;;;;;5012081;28;19968;-88
2022/09/06 19:13:52;;;;;;;;;;;10.90;75.30;;;;;;5052588;28;20002;-89
2022/09/06 19:16:18;;;;;;;;;;;10.80;75.30;;;;;;5000156;28;19910;-89
2022/09/06 19:18:44;;;;;;;;;;;10.70;75.70;;;;;;4997211;28;19974;-90
2022/09/06 19:21:11;;;;;;;;;;;10.70;76.20;;;;;;5013060;28;20397;-92
2022/09/06 19:23:38;;;;;;;;;;;10.60;75.60;;;;;;5080738;28;20269;-92
2022/09/06 19:26:06;;;;;;;;;;;10.50;75.90;;;;;;5080125;28;19971;-91
2022/09/06 19:28:33;;;;;;;;;;;10.40;76.00;;;;;;5123708;27;19914;-91
2022/09/06 20:08:03;;;;;;;;;;;8.50;74.80;;;;;;5086723;27;2146695;-92
2022/09/06 20:10:29;;;;;;;;;;;8.30;75.40;;;;;;5161590;27;19998;-92
2022/09/06 20:12:54;;;;;;;;;;;8.20;76.40;;;;;;5146302;27;20014;-93
2022/09/06 20:15:20;;;;;;;;;;;8.30;77.40;;;;;;5163718;27;19915;-93
2022/09/06 20:17:45;;;;;;;;;;;8.20;78.00;;;;;;5162084;27;19915;-92
2022/09/06 20:20:11;;;;;;;;;;;8.30;78.60;;;;;;5162500;27;20283;-92
